• Join FlightAware (Why Join?)
  • Login
  • US Flag 
04:07AM EDT


 

Airport Tracker/Info


-or-


 

Live Flight TrackerFlight Track Log ✈ RPA3457 ✈ 19-Apr-2013 ✈ KBTV - KDCA

Flight Track Log - Related Links

Times and Time Zones

All times are in EDT time to prevent confusion due to time zone crossing. See the RPA3457 flight status page for this flight to view local times or setup timezone preferences in your user account.

Time Position Orientation Groundspeed Altitude Reporting Facility
EDT Latitude Longitude Course Direction KTS MPH feet Rate Location/Type
08:06AM 44.0638 -73.3009 194° South  Level FlightAware Approximate
08:07AM 43.9577 -73.3363 194° South  Level FlightAware Approximate
08:07AM 44.2839 -73.1853 188° South 252 290 8,900  Level Boston Center
08:08AM 43.8521 -73.3743 195° South  Level FlightAware Approximate
08:08AM 44.2150 -73.2133 196° South 252 290 10,700  Level Boston Center
08:09AM 43.7467 -73.4138 195° South  Level FlightAware Approximate
08:09AM 44.1272 -73.2500 197° South 286 329 13,100  Level Boston Center
08:10AM 43.6415 -73.4539 198° South  Level FlightAware Approximate
08:10AM 44.0478 -73.2836 197° South 292 336 15,000  Level Boston Center
08:11AM 43.5378 -73.5011 198° South  Level FlightAware Approximate
08:11AM 43.9642 -73.3169 196° South 303 349 16,800  Level Boston Center
08:12AM 43.4328 -73.5401 188° South  Level FlightAware Approximate
08:12AM 43.8722 -73.3386 190° South 328 377 18,500  Level Boston Center
08:13AM 43.7806 -73.3575 188° South 336 387 20,300 1,680 Climbing Boston Center
08:14AM 43.6844 -73.3761 188° South 349 402 21,900 1,560 Climbing Boston Center
08:15AM 43.5989 -73.3889 186° South 354 407 23,400 1,380 Climbing Boston Center
08:16AM 43.5008 -73.4017 185° South 354 407 24,800 1,080 Climbing Boston Center
08:17AM 43.4008 -73.4203 188° South 354 407 25,600 960 Climbing Boston Center
08:18AM 43.2983 -73.4386 187° South 365 420 26,800 1,200 Climbing Boston Center
08:19AM 43.1919 -73.4539 186° South 375 432 28,000 1,080 Climbing Boston Center
08:20AM 43.0689 -73.4775 188° South 391 450 29,000 960 Climbing Boston Center
08:21AM 42.9581 -73.4983 188° South 402 463 30,000 480 Climbing Boston Center
08:22AM 42.8622 -73.5164 188° South 402 463 30,000  Level Boston Center
08:23AM 42.7514 -73.5372 188° South 402 463 30,000  Level Boston Center
08:24AM 42.6408 -73.5550 187° South 402 463 30,000  Level Boston Center
08:25AM 42.5322 -73.5756 188° South 402 463 30,000  Level Boston Center
08:26AM 42.4194 -73.5931 187° South 408 470 30,000  Level Boston Center
08:27AM 42.3006 -73.6050 184° South 402 463 30,000  Level Boston Center
08:28AM 42.1900 -73.6253 188° South 402 463 30,000  Level Boston Center
08:29AM 42.0831 -73.6736 199° South 402 463 30,000  Level Boston Center
08:30AM 41.9908 -73.7306 205° Southwest 408 470 30,000 -420 Level Boston Center
08:31AM 41.8922 -73.7869 203° Southwest 408 470 29,200 -1,020 Descending Boston Center
08:32AM 41.7831 -73.8489 203° Southwest 402 463 28,000 -780 Descending Boston Center
08:33AM 41.6697 -73.9131 203° Southwest 408 470 27,700 -660 Descending Boston Center
08:35AM 41.4369 -74.0447 203° Southwest 423 487 26,000 -600 Descending New York Center
08:36AM 41.3311 -74.1031 202° Southwest 423 487 26,000  Level New York Center
08:37AM 41.2233 -74.1639 203° Southwest 423 487 26,000  Level New York Center
08:38AM 41.1261 -74.2114 200° South 423 487 26,000  Level New York Center
08:39AM 41.0308 -74.2644 203° Southwest 405 466 26,000  Level New York Center
08:40AM 40.9333 -74.3197 203° Southwest 393 452 26,000  Level New York Center
08:41AM 40.8336 -74.3747 203° Southwest 388 447 26,000  Level New York Center
08:42AM 40.7519 -74.4581 218° Southwest 388 447 26,000 -60 Level New York Center
08:43AM 40.6881 -74.5697 233° Southwest 374 430 25,900 -540 Descending New York Center
08:44AM 40.6219 -74.6781 231° Southwest 379 436 25,000 -960 Descending New York Center
08:45AM 40.5744 -74.7875 240° Southwest 379 436 24,100 -960 Descending New York Center
08:46AM 40.5700 -74.9183 267° West 354 407 23,200 -600 Descending New York Center
08:47AM 40.5447 -75.0397 255° West 354 407 23,000 -240 Descending New York Center
08:48AM 40.4903 -75.1619 240° Southwest 349 402 22,800 -540 Descending New York Center
08:49AM 40.4425 -75.2681 239° Southwest 349 402 22,000 -420 Descending New York Center
08:50AM 40.3969 -75.3711 240° Southwest 343 395 22,000  Level New York Center
08:51AM 40.3092 -75.4308 207° Southwest 330 380 22,000  Level New York Center
08:52AM 40.2172 -75.4897 206° Southwest 354 407 22,000  Level New York Center
08:53AM 40.1231 -75.5458 204° Southwest 367 422 22,000  Level New York Center
08:54AM 40.0397 -75.5969 205° Southwest 362 417 22,000  Level New York Center
08:55AM 39.9625 -75.6486 207° Southwest 335 386 22,000 -480 Level New York Center
08:56AM 39.8972 -75.7144 218° Southwest 316 364 21,100 -1,020 Descending New York Center
08:57AM 39.8517 -75.8058 237° Southwest 294 338 20,000 -1,080 Descending New York Center
08:58AM 39.8144 -75.9006 243° Southwest 305 351 19,000 -1,080 Descending New York Center
08:59AM 39.8033 -76.0078 262° West 296 341 17,900 -1,080 Descending New York Center
09:00AM 39.7969 -76.1019 265° West 303 349 16,900 -1,020 Descending New York Center
09:01AM 39.7875 -76.2200 264° West 298 343 15,900 -840 Descending New York Center
09:02AM 39.7811 -76.3114 265° West 293 337 15,300 -960 Descending New York Center
09:03AM 39.7719 -76.4186 264° West 281 323 14,000 -1,200 Descending New York Center
09:04AM 39.7636 -76.5044 263° West 275 316 13,000 -600 Descending New York Center
09:05AM 39.7592 -76.5933 266° West 243 280 12,900 -60 Descending New York Center
09:06AM 39.7533 -76.6711 264° West 222 255 12,900  Level New York Center
09:07AM 39.7142 -76.7003 210° Southwest 166 191 12,900  Level New York Center
09:08AM 39.6547 -76.6817 166° South 186 214 12,900  Level New York Center
09:09AM 39.5953 -76.6606 165° South 216 249 12,900  Level New York Center
09:10AM 39.5358 -76.6422 167° South 222 255 12,900  Level New York Center
09:11AM 39.4778 -76.6347 174° South 217 250 12,900  Level New York Center
09:12AM 39.4619 -76.6981 252° West 180 207 12,900  Level New York Center
09:13AM 39.5294 -76.7253 343° North 183 211 12,900 60 Level New York Center
09:14AM 39.6000 -76.7167 North 295 339 13,100  Climbing Potomac TRACON
09:15AM 39.6333 -76.6167 67° East 298 343 13,000 -240 Descending Potomac TRACON
09:16AM 39.6500 -76.5167 78° East 307 353 12,700 -540 Descending Potomac TRACON
09:16AM 39.5833 -76.5000 169° South 260 299 12,000 -420 Descending Potomac TRACON
09:17AM 39.5167 -76.5333 201° Southwest 256 295 12,000  Level Potomac TRACON
09:19AM 39.4333 -76.5667 197° South 254 292 12,000  Level Potomac TRACON
09:19AM 39.3833 -76.5833 194° South 256 295 12,000 -420 Level Potomac TRACON
09:20AM 39.3167 -76.6000 191° South 251 289 11,300 -900 Descending Potomac TRACON
09:21AM 39.2500 -76.6333 201° Southwest 248 285 10,400 -720 Descending Potomac TRACON
09:22AM 39.2000 -76.6500 194° South 245 282 10,000 -240 Descending Potomac TRACON
09:23AM 39.1333 -76.7000 210° Southwest 246 283 10,000  Level Potomac TRACON
09:24AM 39.0833 -76.7667 226° Southwest 243 280 10,000 -60 Level Potomac TRACON
09:25AM 39.0333 -76.8167 218° Southwest 239 275 9,900 -300 Descending Potomac TRACON
09:26AM 39.0000 -76.8667 229° Southwest 193 222 9,400 -600 Descending Potomac TRACON
09:27AM 38.9667 -76.9167 229° Southwest 165 190 8,700 -900 Descending Potomac TRACON
09:28AM 38.9667 -76.9833 270° West 166 191 7,600 -1,140 Descending Potomac TRACON
09:29AM 38.9833 -77.0333 293° West 165 190 6,500 -780 Descending Potomac TRACON
09:30AM 39.0167 -77.0833 311° West 185 213 6,100 -480 Descending Potomac TRACON
09:31AM 39.0500 -77.1167 322° Northwest 183 211 5,600 -540 Descending Potomac TRACON